Time;durP1;ratioP1;P1;durP2;ratioP2;P2;SDS_P1;SDS_P2;PMS_P1;PMS_P2;Temp;Humidity;BMP_temperature;BMP_pressure;BME280_temperature;BME280_humidity;BME280_pressure;Samples;Min_cycle;Max_cycle;Signal;HPM_P1;HPM_P2
2021/10/30 00:00:59;;;;;;;40.40;29.13;;;8.30;99.90;;;;;;2089679;28;20528;-73
2021/10/30 00:02:01;;;;;;;41.47;29.83;;;8.30;99.90;;;;;;2089065;28;20021;-74
2021/10/30 00:03:01;;;;;;;41.38;28.98;;;8.30;99.90;;;;;;2097429;28;20016;-73
2021/10/30 00:04:02;;;;;;;37.85;27.52;;;8.30;99.90;;;;;;2106499;28;20118;-75
2021/10/30 00:05:06;;;;;;;41.33;29.27;;;8.30;99.90;;;;;;2105632;28;20024;-74
2021/10/30 00:06:07;;;;;;;41.75;28.70;;;8.30;99.90;;;;;;2098269;28;20055;-74
2021/10/30 00:07:08;;;;;;;43.33;29.77;;;8.30;99.90;;;;;;2097951;28;20075;-74
2021/10/30 00:08:08;;;;;;;41.65;28.88;;;8.30;99.90;;;;;;2098176;28;20044;-74
2021/10/30 00:09:12;;;;;;;42.15;29.75;;;8.30;99.90;;;;;;2099121;28;20024;-73
2021/10/30 00:10:14;;;;;;;44.63;30.40;;;8.30;99.90;;;;;;2098905;28;20086;-73
2021/10/30 00:11:16;;;;;;;44.70;31.30;;;8.30;99.90;;;;;;2098718;28;20036;-73
2021/10/30 00:12:16;;;;;;;41.95;30.02;;;8.30;99.90;;;;;;2097907;28;20029;-74
2021/10/30 00:13:17;;;;;;;43.40;30.85;;;8.30;99.90;;;;;;2097604;28;20241;-74
2021/10/30 00:14:17;;;;;;;42.85;30.88;;;8.40;99.90;;;;;;2097320;28;20463;-73
2021/10/30 00:15:18;;;;;;;45.78;30.92;;;8.40;99.90;;;;;;2105756;28;20103;-73
2021/10/30 00:16:19;;;;;;;41.55;29.13;;;8.50;99.90;;;;;;2105748;28;20137;-73
2021/10/30 00:17:20;;;;;;;43.40;29.20;;;8.50;99.90;;;;;;2097810;28;20059;-73
2021/10/30 00:18:20;;;;;;;43.25;30.63;;;8.50;99.90;;;;;;2098042;28;20016;-75
2021/10/30 00:19:21;;;;;;;47.45;31.20;;;8.50;99.90;;;;;;2104770;28;20028;-74
2021/10/30 00:20:21;;;;;;;45.60;31.40;;;8.50;99.90;;;;;;2105872;28;20535;-74
2021/10/30 00:21:22;;;;;;;42.28;30.52;;;8.50;99.90;;;;;;2096985;28;20037;-74
2021/10/30 00:22:23;;;;;;;43.95;30.88;;;8.60;99.90;;;;;;2097325;28;20032;-74
2021/10/30 00:23:24;;;;;;;41.85;30.73;;;8.50;99.90;;;;;;2097910;28;20017;-74
2021/10/30 00:24:24;;;;;;;42.78;30.67;;;8.60;99.90;;;;;;2097976;28;20031;-73
2021/10/30 00:25:25;;;;;;;44.65;31.58;;;8.50;99.90;;;;;;2097025;28;20492;-74
2021/10/30 00:26:25;;;;;;;42.75;30.27;;;8.60;99.90;;;;;;2097329;28;20117;-74
2021/10/30 00:27:26;;;;;;;41.83;29.90;;;8.60;99.90;;;;;;2105312;28;20028;-73
2021/10/30 00:28:26;;;;;;;43.00;30.33;;;8.50;99.90;;;;;;2105633;28;20482;-74
2021/10/30 00:29:27;;;;;;;45.63;31.20;;;8.50;99.90;;;;;;2097518;28;20024;-74
2021/10/30 00:30:28;;;;;;;43.00;30.02;;;8.60;99.90;;;;;;2106050;28;20040;-73
2021/10/30 00:31:28;;;;;;;42.15;30.73;;;8.60;99.90;;;;;;2107508;28;20096;-74
2021/10/30 00:32:29;;;;;;;44.63;32.30;;;8.50;99.90;;;;;;2101129;28;20163;-75
2021/10/30 00:33:30;;;;;;;42.35;30.58;;;8.50;99.90;;;;;;2100574;28;20087;-73
2021/10/30 00:34:30;;;;;;;45.95;32.25;;;8.50;99.90;;;;;;2099753;28;20028;-72
2021/10/30 00:35:31;;;;;;;44.42;31.50;;;8.50;99.90;;;;;;2097802;28;20054;-73
2021/10/30 00:36:31;;;;;;;42.20;29.60;;;8.50;99.90;;;;;;2097236;28;20040;-74
2021/10/30 00:37:32;;;;;;;45.85;31.08;;;8.50;99.90;;;;;;2097939;28;20029;-73
2021/10/30 00:38:33;;;;;;;44.63;30.83;;;8.50;99.90;;;;;;2097960;28;20032;-73
2021/10/30 00:39:33;;;;;;;47.00;31.17;;;8.40;99.90;;;;;;2097462;28;20025;-73
2021/10/30 00:40:34;;;;;;;44.33;30.30;;;8.40;99.90;;;;;;2098078;28;20588;-73
2021/10/30 00:41:35;;;;;;;44.85;30.70;;;8.40;99.90;;;;;;2096630;28;20032;-72
2021/10/30 00:42:36;;;;;;;42.80;30.05;;;8.50;99.90;;;;;;2097213;28;20530;-73
2021/10/30 00:43:37;;;;;;;45.53;31.15;;;8.40;99.90;;;;;;2097794;28;20032;-73
2021/10/30 00:44:37;;;;;;;40.28;30.30;;;8.50;99.90;;;;;;2097983;28;20021;-74
2021/10/30 00:45:38;;;;;;;44.08;31.10;;;8.40;99.90;;;;;;2097906;28;20119;-74
2021/10/30 00:46:47;;;;;;;42.05;31.10;;;8.50;99.90;;;;;;2105692;28;20031;-74
2021/10/30 00:47:47;;;;;;;42.67;30.45;;;8.50;99.90;;;;;;2104608;28;20054;-72
2021/10/30 00:48:48;;;;;;;47.10;31.35;;;8.50;99.90;;;;;;2097976;28;20106;-73
2021/10/30 00:49:49;;;;;;;43.47;30.63;;;8.50;99.90;;;;;;2096900;28;20050;-73
2021/10/30 00:50:49;;;;;;;43.47;29.90;;;8.50;99.90;;;;;;2097802;28;20032;-73
2021/10/30 00:51:55;;;;;;;41.75;29.70;;;8.50;99.90;;;;;;2097529;28;20111;-73
2021/10/30 00:52:58;;;;;;;43.45;31.13;;;8.60;99.90;;;;;;2097827;28;20032;-73
2021/10/30 00:54:00;;;;;;;42.25;30.40;;;8.60;99.90;;;;;;2097863;28;20036;-74
2021/10/30 00:55:02;;;;;;;42.83;30.55;;;8.60;99.90;;;;;;2097734;28;20024;-73
2021/10/30 00:56:04;;;;;;;43.70;31.08;;;8.60;99.90;;;;;;2097081;28;20040;-73
2021/10/30 00:57:06;;;;;;;43.50;30.70;;;8.60;99.90;;;;;;2096726;28;20624;-72
2021/10/30 00:58:11;;;;;;;44.55;30.83;;;8.60;99.90;;;;;;2097940;28;20754;-74
2021/10/30 00:59:19;;;;;;;43.58;29.67;;;8.60;99.90;;;;;;2097238;28;20061;-75
2021/10/30 01:00:19;;;;;;;41.33;29.73;;;8.50;99.90;;;;;;2098515;28;20107;-73
2021/10/30 01:01:20;;;;;;;45.38;30.70;;;8.50;99.90;;;;;;2098091;28;20035;-72
2021/10/30 01:02:24;;;;;;;41.65;31.00;;;8.60;99.90;;;;;;2098495;28;20586;-73
2021/10/30 01:03:25;;;;;;;41.90;29.80;;;8.60;99.90;;;;;;2098031;28;20052;-73
2021/10/30 01:04:26;;;;;;;43.75;30.15;;;8.50;99.90;;;;;;2097597;28;20072;-77
2021/10/30 01:05:26;;;;;;;45.97;31.23;;;8.50;99.90;;;;;;2098529;28;20365;-73
2021/10/30 01:06:28;;;;;;;42.47;30.88;;;8.50;99.90;;;;;;2098707;28;20245;-76
2021/10/30 01:07:31;;;;;;;43.50;30.70;;;8.60;99.90;;;;;;2098186;28;20036;-72
2021/10/30 01:08:32;;;;;;;41.45;30.50;;;8.60;99.90;;;;;;2098135;28;20115;-73
2021/10/30 01:09:32;;;;;;;42.03;29.98;;;8.60;99.90;;;;;;2097710;28;20028;-72
2021/10/30 01:10:33;;;;;;;46.50;31.48;;;8.60;99.90;;;;;;2098274;28;20630;-72
2021/10/30 01:11:34;;;;;;;41.50;30.30;;;8.60;99.90;;;;;;2097107;28;20501;-74
2021/10/30 01:12:34;;;;;;;44.63;31.13;;;8.60;99.90;;;;;;2097443;28;20035;-73
2021/10/30 01:13:37;;;;;;;43.55;31.00;;;8.50;99.90;;;;;;2098273;28;20036;-72
2021/10/30 01:14:38;;;;;;;46.03;31.77;;;8.50;99.90;;;;;;2097539;28;20837;-72
2021/10/30 01:15:39;;;;;;;44.30;31.60;;;8.60;99.90;;;;;;2097376;28;20028;-72
2021/10/30 01:16:39;;;;;;;43.08;29.75;;;8.50;99.90;;;;;;2097895;28;20038;-73
2021/10/30 01:17:40;;;;;;;38.90;29.48;;;8.50;99.90;;;;;;2098199;28;20029;-73
2021/10/30 01:18:41;;;;;;;45.35;32.42;;;8.50;99.90;;;;;;2097997;28;20432;-73
2021/10/30 01:19:42;;;;;;;42.60;30.55;;;8.50;99.90;;;;;;2097521;28;20108;-72
2021/10/30 01:20:43;;;;;;;44.78;31.50;;;8.50;99.90;;;;;;2098097;28;20036;-72
2021/10/30 01:21:43;;;;;;;43.17;31.15;;;8.40;99.90;;;;;;2097807;28;20042;-72
2021/10/30 01:22:44;;;;;;;45.78;31.42;;;8.40;99.90;;;;;;2098103;28;20103;-74
2021/10/30 01:23:45;;;;;;;41.92;30.10;;;8.50;99.90;;;;;;2098271;28;20028;-72
2021/10/30 01:24:46;;;;;;;40.80;29.17;;;8.40;99.90;;;;;;2098007;28;20038;-73
2021/10/30 01:25:49;;;;;;;45.50;31.85;;;8.40;99.90;;;;;;2098041;28;20035;-72
2021/10/30 01:26:50;;;;;;;41.63;30.90;;;8.40;99.90;;;;;;2097845;28;20042;-73
2021/10/30 01:27:52;;;;;;;43.10;30.45;;;8.40;99.90;;;;;;2100155;28;20036;-72
2021/10/30 01:28:53;;;;;;;44.92;30.98;;;8.40;99.90;;;;;;2105705;28;20129;-73
2021/10/30 01:29:53;;;;;;;45.60;31.13;;;8.40;99.90;;;;;;2104579;28;20032;-74
2021/10/30 01:30:55;;;;;;;42.72;30.35;;;8.40;99.90;;;;;;2105687;28;20016;-74
2021/10/30 01:31:55;;;;;;;44.05;31.20;;;8.30;99.90;;;;;;2105472;28;20495;-74
2021/10/30 01:32:57;;;;;;;43.53;30.70;;;8.40;99.90;;;;;;2105687;28;20032;-74
2021/10/30 01:34:02;;;;;;;45.75;31.25;;;8.40;99.90;;;;;;2105255;28;20067;-74
2021/10/30 01:35:04;;;;;;;44.70;31.45;;;8.40;99.90;;;;;;2105836;28;20024;-74
2021/10/30 01:36:09;;;;;;;44.72;30.67;;;8.40;99.90;;;;;;2105676;28;20480;-74
2021/10/30 01:37:12;;;;;;;41.08;30.35;;;8.40;99.90;;;;;;2105083;28;20028;-74
2021/10/30 01:38:13;;;;;;;44.40;31.63;;;8.40;99.90;;;;;;2096461;28;20040;-74
2021/10/30 01:39:14;;;;;;;40.53;29.27;;;8.50;99.90;;;;;;2096237;28;20077;-74
2021/10/30 01:40:15;;;;;;;46.15;31.42;;;8.50;99.90;;;;;;2105021;28;20121;-74
2021/10/30 01:41:16;;;;;;;45.33;31.02;;;8.50;99.90;;;;;;2104803;28;20125;-74
2021/10/30 01:42:17;;;;;;;42.42;30.30;;;8.50;99.90;;;;;;2105514;28;20039;-74
2021/10/30 01:43:19;;;;;;;44.22;31.05;;;8.40;99.90;;;;;;2104938;28;20063;-74
2021/10/30 01:44:19;;;;;;;44.75;31.10;;;8.50;99.90;;;;;;2096898;28;20488;-74
2021/10/30 01:45:20;;;;;;;42.10;30.27;;;8.50;99.90;;;;;;2105120;28;20020;-74
2021/10/30 01:46:20;;;;;;;45.35;30.80;;;8.50;99.90;;;;;;2105821;28;20028;-74
2021/10/30 01:47:21;;;;;;;44.15;30.92;;;8.40;99.90;;;;;;2105606;28;20024;-74
2021/10/30 01:48:29;;;;;;;41.47;30.23;;;8.40;99.90;;;;;;2104951;28;20456;-74
2021/10/30 01:49:30;;;;;;;44.05;30.40;;;8.40;99.90;;;;;;2105218;28;20463;-75
2021/10/30 01:50:31;;;;;;;44.75;31.13;;;8.40;99.90;;;;;;2105766;28;20135;-74
2021/10/30 01:51:31;;;;;;;44.25;30.92;;;8.40;99.90;;;;;;2104741;28;20588;-74
2021/10/30 01:52:32;;;;;;;43.05;31.50;;;8.40;99.90;;;;;;2105104;28;20046;-74
2021/10/30 01:53:34;;;;;;;47.20;32.58;;;8.40;99.90;;;;;;2105792;28;20043;-74
2021/10/30 01:54:35;;;;;;;47.33;32.30;;;8.40;99.90;;;;;;2106124;28;20105;-74
2021/10/30 01:55:39;;;;;;;45.03;31.50;;;8.40;99.90;;;;;;2105759;28;20036;-75
2021/10/30 01:56:40;;;;;;;47.95;31.55;;;8.50;99.90;;;;;;2106142;28;20032;-75
2021/10/30 01:57:41;;;;;;;44.25;31.33;;;8.40;99.90;;;;;;2106328;28;20038;-76
2021/10/30 01:58:42;;;;;;;40.67;29.67;;;8.40;99.90;;;;;;2104858;28;20028;-74
2021/10/30 01:59:43;;;;;;;46.38;32.28;;;8.40;99.90;;;;;;2104518;28;20147;-74
2021/10/30 02:00:46;;;;;;;46.65;31.63;;;8.40;99.90;;;;;;2105821;28;20073;-74
2021/10/30 02:01:46;;;;;;;46.20;31.50;;;8.40;99.90;;;;;;2105292;28;20503;-74
2021/10/30 02:02:47;;;;;;;45.92;31.67;;;8.30;99.90;;;;;;2105596;28;20020;-75
2021/10/30 02:03:48;;;;;;;45.70;31.55;;;8.30;99.90;;;;;;2105308;28;20024;-75
2021/10/30 02:04:48;;;;;;;47.10;31.20;;;8.30;99.90;;;;;;2105557;28;20403;-75
2021/10/30 02:05:53;;;;;;;41.10;30.50;;;8.30;99.90;;;;;;2104543;28;20426;-74
2021/10/30 02:06:53;;;;;;;43.28;30.88;;;8.30;99.90;;;;;;2104967;28;20107;-74
2021/10/30 02:07:54;;;;;;;45.83;31.42;;;8.40;99.90;;;;;;2104807;28;20468;-74
2021/10/30 02:08:54;;;;;;;41.50;31.27;;;8.40;99.90;;;;;;2104856;28;20038;-74
2021/10/30 02:09:56;;;;;;;43.70;31.48;;;8.40;99.90;;;;;;2104527;28;20055;-74
2021/10/30 02:10:56;;;;;;;44.25;31.77;;;8.40;99.90;;;;;;2104361;28;20017;-74
2021/10/30 02:11:57;;;;;;;44.85;30.92;;;8.50;99.90;;;;;;2105223;28;20032;-74
2021/10/30 02:12:58;;;;;;;43.83;30.98;;;8.50;99.90;;;;;;2104888;28;20050;-74
2021/10/30 02:13:58;;;;;;;43.78;30.23;;;8.50;99.90;;;;;;2104956;28;20035;-74
2021/10/30 02:14:59;;;;;;;44.97;31.60;;;8.50;99.90;;;;;;2105590;28;20107;-74
2021/10/30 02:16:01;;;;;;;44.72;32.22;;;8.50;99.90;;;;;;2105160;28;20028;-74
2021/10/30 02:17:01;;;;;;;43.20;31.58;;;8.50;99.90;;;;;;2104885;28;20043;-76
2021/10/30 02:18:02;;;;;;;40.90;29.95;;;8.50;99.90;;;;;;2104929;28;20115;-74
2021/10/30 02:19:03;;;;;;;46.05;31.45;;;8.50;99.90;;;;;;2104947;28;20055;-74
2021/10/30 02:20:06;;;;;;;40.80;30.50;;;8.50;99.90;;;;;;2104695;28;20560;-73
2021/10/30 02:21:10;;;;;;;44.67;31.63;;;8.50;99.90;;;;;;2105448;28;20032;-73
2021/10/30 02:22:10;;;;;;;45.70;31.67;;;8.50;99.90;;;;;;2104486;28;20049;-73
2021/10/30 02:23:12;;;;;;;46.22;30.95;;;8.50;99.90;;;;;;2104965;28;20526;-74
2021/10/30 02:24:12;;;;;;;44.17;30.98;;;8.50;99.90;;;;;;2104708;28;20516;-74
2021/10/30 02:25:13;;;;;;;45.42;31.73;;;8.50;99.90;;;;;;2104351;28;20028;-74
2021/10/30 02:26:14;;;;;;;44.30;31.35;;;8.50;99.90;;;;;;2104782;28;20465;-74
2021/10/30 02:27:18;;;;;;;44.22;31.23;;;8.50;99.90;;;;;;2105538;28;20086;-75
2021/10/30 02:28:19;;;;;;;45.45;31.55;;;8.50;99.90;;;;;;2105208;28;20620;-74
2021/10/30 02:29:20;;;;;;;41.17;30.42;;;8.50;99.90;;;;;;2104786;28;20056;-74
2021/10/30 02:30:21;;;;;;;43.05;30.50;;;8.50;99.90;;;;;;2105158;28;20467;-75
2021/10/30 02:31:22;;;;;;;43.80;31.02;;;8.50;99.90;;;;;;2105076;28;20027;-74
2021/10/30 02:32:22;;;;;;;42.78;30.83;;;8.40;99.90;;;;;;2106046;28;20395;-74
2021/10/30 02:33:23;;;;;;;44.40;30.90;;;8.40;99.90;;;;;;2106723;28;20031;-74
2021/10/30 02:34:24;;;;;;;46.97;32.03;;;8.50;99.90;;;;;;2107267;28;20032;-74
2021/10/30 02:35:24;;;;;;;43.42;31.70;;;8.50;99.90;;;;;;2107298;28;20411;-74
2021/10/30 02:36:25;;;;;;;42.45;30.67;;;8.50;99.90;;;;;;2106994;28;20542;-74
2021/10/30 02:37:26;;;;;;;43.22;30.90;;;8.50;99.90;;;;;;2107130;28;20032;-74
2021/10/30 02:38:26;;;;;;;44.55;30.88;;;8.50;99.90;;;;;;2107300;28;20028;-74
2021/10/30 02:39:27;;;;;;;44.75;31.40;;;8.50;99.90;;;;;;2106951;28;20482;-74
2021/10/30 02:40:28;;;;;;;41.35;30.42;;;8.50;99.90;;;;;;2109546;28;20101;-74
2021/10/30 02:41:29;;;;;;;45.55;30.75;;;8.50;99.90;;;;;;2111542;28;20040;-74
2021/10/30 02:42:29;;;;;;;45.85;30.88;;;8.50;99.90;;;;;;2111898;28;20034;-75
2021/10/30 02:43:30;;;;;;;42.03;30.38;;;8.50;99.90;;;;;;2110876;28;20059;-74
2021/10/30 02:44:31;;;;;;;43.50;30.58;;;8.50;99.90;;;;;;2107830;28;20093;-74
2021/10/30 02:45:37;;;;;;;46.13;30.73;;;8.50;99.90;;;;;;2107346;28;20039;-74
2021/10/30 02:46:37;;;;;;;43.67;29.58;;;8.50;99.90;;;;;;2106169;28;20388;-74
2021/10/30 02:47:38;;;;;;;45.40;30.85;;;8.50;99.90;;;;;;2106095;28;20048;-75
2021/10/30 02:48:39;;;;;;;44.80;30.92;;;8.40;99.90;;;;;;2098163;28;20024;-74
2021/10/30 02:49:39;;;;;;;42.88;30.85;;;8.40;99.90;;;;;;2097487;28;20158;-74
2021/10/30 02:50:40;;;;;;;46.90;31.42;;;8.40;99.90;;;;;;2097975;28;20031;-74
2021/10/30 02:51:40;;;;;;;41.55;30.45;;;8.40;99.90;;;;;;2105987;28;20024;-74
2021/10/30 02:52:41;;;;;;;41.30;30.40;;;8.40;99.90;;;;;;2107204;28;20716;-74
2021/10/30 02:53:42;;;;;;;43.28;30.38;;;8.40;99.90;;;;;;2106650;28;20031;-74
2021/10/30 02:54:42;;;;;;;44.83;30.40;;;8.40;99.90;;;;;;2106021;28;20073;-74
2021/10/30 02:55:43;;;;;;;48.13;31.42;;;8.40;99.90;;;;;;2106113;28;20532;-74
2021/10/30 02:56:44;;;;;;;41.60;29.67;;;8.40;99.90;;;;;;2106269;28;20035;-74
2021/10/30 02:57:48;;;;;;;42.50;30.27;;;8.40;99.90;;;;;;2106338;28;20036;-74
2021/10/30 02:58:49;;;;;;;45.67;31.50;;;8.40;99.90;;;;;;2107162;28;20032;-74
2021/10/30 02:59:51;;;;;;;43.58;29.83;;;8.30;99.90;;;;;;2106741;28;20135;-73
2021/10/30 03:00:51;;;;;;;45.28;31.23;;;8.30;99.90;;;;;;2107488;28;20044;-74
2021/10/30 03:01:52;;;;;;;43.40;30.80;;;8.30;99.90;;;;;;2109425;28;20028;-74
2021/10/30 03:02:53;;;;;;;42.58;30.75;;;8.30;99.90;;;;;;2111369;28;20630;-74
2021/10/30 03:03:53;;;;;;;43.17;30.92;;;8.30;99.90;;;;;;2112032;28;20024;-73
2021/10/30 03:04:55;;;;;;;45.85;31.33;;;8.30;99.90;;;;;;2112811;28;20099;-74
2021/10/30 03:05:56;;;;;;;43.60;31.52;;;8.40;99.90;;;;;;2111408;28;20043;-73
2021/10/30 03:06:57;;;;;;;46.38;31.23;;;8.40;99.90;;;;;;2107218;28;20036;-73
2021/10/30 03:07:57;;;;;;;47.40;31.08;;;8.40;99.90;;;;;;2106214;28;20027;-73
2021/10/30 03:08:59;;;;;;;46.95;31.05;;;8.40;99.90;;;;;;2106443;28;20036;-73
2021/10/30 03:09:59;;;;;;;44.85;30.42;;;8.40;99.90;;;;;;2106197;28;20024;-73
2021/10/30 03:11:00;;;;;;;40.95;30.65;;;8.50;99.90;;;;;;2107172;28;20024;-74
2021/10/30 03:12:01;;;;;;;41.22;29.95;;;8.40;99.90;;;;;;2106956;28;20031;-73
2021/10/30 03:13:05;;;;;;;44.95;31.50;;;8.40;99.90;;;;;;2107435;28;20024;-72
2021/10/30 03:14:06;;;;;;;42.65;30.52;;;8.40;99.90;;;;;;2107163;28;20042;-74
2021/10/30 03:15:06;;;;;;;41.55;30.90;;;8.40;99.90;;;;;;2098117;28;20032;-72
2021/10/30 03:16:07;;;;;;;43.47;31.13;;;8.50;99.90;;;;;;2098487;28;20104;-72
2021/10/30 03:17:08;;;;;;;44.72;31.15;;;8.50;99.90;;;;;;2098129;28;20546;-73
2021/10/30 03:18:08;;;;;;;44.00;30.75;;;8.50;99.90;;;;;;2106767;28;20035;-73
2021/10/30 03:19:09;;;;;;;42.70;30.83;;;8.50;99.90;;;;;;2098207;28;20606;-72
2021/10/30 03:20:10;;;;;;;44.05;30.60;;;8.50;99.90;;;;;;2106276;28;20024;-72
2021/10/30 03:21:11;;;;;;;43.70;30.75;;;8.50;99.90;;;;;;2107041;28;20476;-72
2021/10/30 03:22:12;;;;;;;43.20;30.98;;;8.50;99.90;;;;;;2107120;28;20022;-73
2021/10/30 03:23:13;;;;;;;42.40;30.40;;;8.50;99.90;;;;;;2107232;28;20028;-72
2021/10/30 03:24:16;;;;;;;41.92;28.90;;;8.50;99.90;;;;;;2107149;28;20027;-74
2021/10/30 03:25:17;;;;;;;44.90;30.90;;;8.50;99.90;;;;;;2106322;28;20028;-73
2021/10/30 03:26:19;;;;;;;42.65;29.70;;;8.50;99.90;;;;;;2106884;28;20032;-72
2021/10/30 03:27:19;;;;;;;46.25;31.48;;;8.50;99.90;;;;;;2107371;28;20020;-73
2021/10/30 03:28:20;;;;;;;41.83;30.42;;;8.40;99.90;;;;;;2107242;28;20016;-73
2021/10/30 03:29:21;;;;;;;41.95;30.15;;;8.40;99.90;;;;;;2105981;28;20016;-72
2021/10/30 03:30:22;;;;;;;45.83;31.50;;;8.50;99.90;;;;;;2106743;28;20052;-73
2021/10/30 03:31:22;;;;;;;46.17;31.15;;;8.50;99.90;;;;;;2106800;28;20122;-73
2021/10/30 03:32:23;;;;;;;46.08;31.40;;;8.50;99.90;;;;;;2106795;28;20032;-72
2021/10/30 03:33:25;;;;;;;42.95;29.80;;;8.50;99.90;;;;;;2106707;28;20035;-73
2021/10/30 03:34:25;;;;;;;43.45;30.10;;;8.50;99.90;;;;;;2106547;28;20024;-72
2021/10/30 03:35:26;;;;;;;43.15;29.67;;;8.50;99.90;;;;;;2107246;28;20103;-74
2021/10/30 03:36:27;;;;;;;50.03;31.92;;;8.40;99.90;;;;;;2107165;28;20507;-73
2021/10/30 03:37:27;;;;;;;46.22;31.13;;;8.40;99.90;;;;;;2106949;28;20552;-72
2021/10/30 03:38:28;;;;;;;46.00;31.30;;;8.50;99.90;;;;;;2106534;28;20040;-72
2021/10/30 03:39:28;;;;;;;45.58;30.85;;;8.50;99.90;;;;;;2105383;28;20054;-73
2021/10/30 03:40:29;;;;;;;43.50;30.55;;;8.40;99.90;;;;;;2107273;28;20024;-72
2021/10/30 03:41:30;;;;;;;43.78;29.67;;;8.50;99.90;;;;;;2106396;28;20675;-72
2021/10/30 03:42:31;;;;;;;43.38;30.55;;;8.40;99.90;;;;;;2106135;28;20020;-72
2021/10/30 03:43:31;;;;;;;46.08;31.83;;;8.40;99.90;;;;;;2097566;28;20020;-73
2021/10/30 03:44:32;;;;;;;44.63;31.25;;;8.40;99.90;;;;;;2105888;28;20016;-72
2021/10/30 03:45:33;;;;;;;43.85;30.85;;;8.40;99.90;;;;;;2106801;28;20387;-72
2021/10/30 03:46:33;;;;;;;43.80;31.40;;;8.40;99.90;;;;;;2106544;28;20387;-73
2021/10/30 03:47:35;;;;;;;45.15;30.80;;;8.40;99.90;;;;;;2106957;28;20032;-73
2021/10/30 03:48:35;;;;;;;42.25;30.85;;;8.40;99.90;;;;;;2107181;28;20564;-72
2021/10/30 03:49:36;;;;;;;43.67;30.08;;;8.40;99.90;;;;;;2105931;28;20024;-72
2021/10/30 03:50:38;;;;;;;43.83;31.52;;;8.40;99.90;;;;;;2106468;28;20059;-73
2021/10/30 03:51:38;;;;;;;43.20;31.15;;;8.40;99.90;;;;;;2106627;28;20408;-72
2021/10/30 03:52:39;;;;;;;42.85;30.80;;;8.40;99.90;;;;;;2106688;28;20063;-73
2021/10/30 03:53:40;;;;;;;43.33;31.30;;;8.30;99.90;;;;;;2106240;28;20026;-72
2021/10/30 03:54:40;;;;;;;46.38;30.65;;;8.30;99.90;;;;;;2106173;28;20457;-72
2021/10/30 03:55:41;;;;;;;39.92;30.00;;;8.30;99.90;;;;;;2106569;28;20391;-73
2021/10/30 03:56:42;;;;;;;44.78;30.92;;;8.30;99.90;;;;;;2106211;28;20038;-73
2021/10/30 03:57:43;;;;;;;46.38;32.13;;;8.30;99.90;;;;;;2105980;28;20036;-73
2021/10/30 03:58:44;;;;;;;45.17;31.77;;;8.20;99.90;;;;;;2106093;28;20483;-72
2021/10/30 03:59:44;;;;;;;46.28;31.60;;;8.30;99.90;;;;;;2106158;28;20035;-73
2021/10/30 04:00:45;;;;;;;41.72;30.92;;;8.30;99.90;;;;;;2106625;28;20032;-74
2021/10/30 04:01:45;;;;;;;40.78;29.73;;;8.30;99.90;;;;;;2105950;28;20051;-72
2021/10/30 04:02:46;;;;;;;42.40;30.45;;;8.20;99.90;;;;;;2106637;28;20055;-72
2021/10/30 04:03:46;;;;;;;46.95;32.05;;;8.20;99.90;;;;;;2106755;28;20087;-72
2021/10/30 04:04:48;;;;;;;42.55;29.88;;;8.20;99.90;;;;;;2106617;28;20028;-72
2021/10/30 04:05:48;;;;;;;45.40;31.30;;;8.20;99.90;;;;;;2106116;28;20058;-73
2021/10/30 04:06:49;;;;;;;45.80;31.90;;;8.20;99.90;;;;;;2105924;28;20089;-73
2021/10/30 04:07:49;;;;;;;44.20;31.08;;;8.10;99.90;;;;;;2106548;28;20043;-74
2021/10/30 04:08:51;;;;;;;45.47;31.65;;;8.20;99.90;;;;;;2106240;28;20028;-72
2021/10/30 04:09:51;;;;;;;45.60;31.25;;;8.20;99.90;;;;;;2105472;28;20050;-75
2021/10/30 04:10:52;;;;;;;44.30;31.10;;;8.20;99.90;;;;;;2106011;28;20157;-73
2021/10/30 04:11:53;;;;;;;44.78;31.50;;;8.20;99.90;;;;;;2106446;28;20119;-74
2021/10/30 04:12:54;;;;;;;45.55;31.13;;;8.20;99.90;;;;;;2106798;28;20135;-73
2021/10/30 04:13:54;;;;;;;42.22;30.92;;;8.20;99.90;;;;;;2106625;28;20028;-74
2021/10/30 04:14:55;;;;;;;45.63;32.00;;;8.20;99.90;;;;;;2106458;28;20024;-75
2021/10/30 04:15:55;;;;;;;44.08;31.77;;;8.20;99.90;;;;;;2106295;28;20174;-74
2021/10/30 04:16:56;;;;;;;43.20;30.77;;;8.20;99.90;;;;;;2105979;28;20096;-75
2021/10/30 04:17:56;;;;;;;45.72;32.65;;;8.20;99.90;;;;;;2105457;28;20043;-75
2021/10/30 04:18:58;;;;;;;43.72;30.58;;;8.20;99.90;;;;;;2105650;28;20028;-74
2021/10/30 04:19:59;;;;;;;44.63;31.73;;;8.20;99.90;;;;;;2105667;28;20031;-75
2021/10/30 04:21:00;;;;;;;48.38;32.15;;;8.20;99.90;;;;;;2106344;28;20028;-75
2021/10/30 04:22:00;;;;;;;46.38;32.20;;;8.20;99.90;;;;;;2106335;28;20024;-75
2021/10/30 04:23:01;;;;;;;45.25;31.92;;;8.30;99.90;;;;;;2106573;28;20016;-75
2021/10/30 04:24:02;;;;;;;46.42;31.52;;;8.30;99.90;;;;;;2105806;28;20028;-74
2021/10/30 04:25:04;;;;;;;43.08;30.92;;;8.30;99.90;;;;;;2106365;28;20065;-74
2021/10/30 04:26:05;;;;;;;47.42;32.53;;;8.30;99.90;;;;;;2106577;28;20016;-75
2021/10/30 04:27:06;;;;;;;45.20;32.00;;;8.30;99.90;;;;;;2105864;28;20090;-74
2021/10/30 04:28:06;;;;;;;44.10;31.08;;;8.30;99.90;;;;;;2105766;28;20028;-74
2021/10/30 04:29:08;;;;;;;44.10;30.60;;;8.30;99.90;;;;;;2106628;28;20415;-74
2021/10/30 04:30:08;;;;;;;45.03;31.95;;;8.30;99.90;;;;;;2105540;28;20082;-74
2021/10/30 04:31:10;;;;;;;47.83;32.03;;;8.20;99.90;;;;;;2105609;28;20035;-75
2021/10/30 04:32:13;;;;;;;45.85;32.15;;;8.30;99.90;;;;;;2106336;28;20024;-74
2021/10/30 04:33:15;;;;;;;42.88;30.50;;;8.20;99.90;;;;;;2106418;28;20028;-74
2021/10/30 04:34:19;;;;;;;42.70;30.25;;;8.20;99.90;;;;;;2106290;28;20032;-74
2021/10/30 04:35:20;;;;;;;46.20;31.77;;;8.20;99.90;;;;;;2105933;28;20028;-75
2021/10/30 04:36:23;;;;;;;46.65;32.65;;;8.10;99.90;;;;;;2105924;28;20472;-75
2021/10/30 04:37:24;;;;;;;47.00;33.10;;;8.10;99.90;;;;;;2106208;28;20515;-75
2021/10/30 04:38:25;;;;;;;45.17;32.05;;;8.10;99.90;;;;;;2105800;28;20115;-75
2021/10/30 04:39:25;;;;;;;44.40;32.70;;;8.10;99.90;;;;;;2106081;28;20028;-75
2021/10/30 04:40:26;;;;;;;49.95;34.50;;;8.10;99.90;;;;;;2106499;28;20079;-75
2021/10/30 04:41:26;;;;;;;49.45;34.53;;;8.10;99.90;;;;;;2106116;28;20054;-74
2021/10/30 04:42:27;;;;;;;49.90;35.70;;;8.10;99.90;;;;;;2106551;28;20471;-75
2021/10/30 04:43:28;;;;;;;50.70;34.78;;;8.10;99.90;;;;;;2106943;28;20032;-75
2021/10/30 04:44:28;;;;;;;47.97;33.17;;;8.10;99.90;;;;;;2106740;28;20020;-74
2021/10/30 04:45:29;;;;;;;45.72;32.40;;;8.10;99.90;;;;;;2106584;28;20499;-75
2021/10/30 04:46:29;;;;;;;47.20;34.28;;;8.10;99.90;;;;;;2106624;28;20028;-74
2021/10/30 04:47:30;;;;;;;54.42;34.28;;;8.10;99.90;;;;;;2106831;28;20032;-75
2021/10/30 04:48:33;;;;;;;46.28;32.13;;;8.00;99.90;;;;;;2106004;28;20020;-74
2021/10/30 04:49:34;;;;;;;46.65;31.52;;;8.10;99.90;;;;;;2105727;28;20161;-75
2021/10/30 04:50:35;;;;;;;44.65;32.67;;;8.00;99.90;;;;;;2106049;28;20032;-75
2021/10/30 04:51:36;;;;;;;45.40;31.85;;;8.10;99.90;;;;;;2105766;28;20475;-74
2021/10/30 04:52:36;;;;;;;47.25;32.45;;;8.00;99.90;;;;;;2106795;28;20032;-74
2021/10/30 04:53:39;;;;;;;48.75;32.28;;;8.00;99.90;;;;;;2106136;28;20505;-74
2021/10/30 04:54:40;;;;;;;43.65;31.58;;;8.00;99.90;;;;;;2106476;28;20507;-75
2021/10/30 04:55:41;;;;;;;46.92;31.63;;;8.00;99.90;;;;;;2106460;28;20032;-75
2021/10/30 04:56:41;;;;;;;46.78;32.45;;;8.00;99.90;;;;;;2106828;28;20043;-74
2021/10/30 04:57:42;;;;;;;44.35;31.30;;;8.00;99.90;;;;;;2105957;28;20035;-74
2021/10/30 04:58:44;;;;;;;45.67;31.75;;;8.00;99.90;;;;;;2089309;28;20380;-74
2021/10/30 04:59:44;;;;;;;45.88;31.92;;;8.00;99.90;;;;;;2097226;28;20502;-74
2021/10/30 05:00:45;;;;;;;50.30;33.20;;;7.90;99.90;;;;;;2106317;28;20059;-74
2021/10/30 05:01:45;;;;;;;46.75;32.42;;;8.00;99.90;;;;;;2105136;28;20032;-74
2021/10/30 05:02:46;;;;;;;46.30;31.75;;;8.00;99.90;;;;;;2105611;28;20027;-73
2021/10/30 05:03:46;;;;;;;49.50;32.63;;;8.00;99.90;;;;;;2106047;28;20032;-73
2021/10/30 05:04:47;;;;;;;47.67;32.38;;;8.00;99.90;;;;;;2105967;28;20020;-74
2021/10/30 05:05:48;;;;;;;45.28;32.10;;;8.10;99.90;;;;;;2106085;28;20028;-73
2021/10/30 05:06:48;;;;;;;41.92;31.10;;;8.10;99.90;;;;;;2106120;28;20738;-73
2021/10/30 05:07:50;;;;;;;46.60;32.05;;;8.00;99.90;;;;;;2106201;28;20503;-73
2021/10/30 05:08:50;;;;;;;47.95;32.80;;;8.00;99.90;;;;;;2106236;28;20479;-74
2021/10/30 05:09:51;;;;;;;45.75;31.83;;;8.10;99.90;;;;;;2105870;28;20063;-73
2021/10/30 05:10:51;;;;;;;45.78;32.13;;;8.10;99.90;;;;;;2106376;28;20035;-73
2021/10/30 05:11:52;;;;;;;46.08;32.13;;;8.10;99.90;;;;;;2106334;28;20036;-73
2021/10/30 05:12:52;;;;;;;45.53;31.80;;;8.10;99.90;;;;;;2107273;28;20378;-74
2021/10/30 05:13:53;;;;;;;46.28;32.70;;;8.20;99.90;;;;;;2099398;28;20040;-73